KMSP/MSP METAR and TAF weather

Enter ICAO airport designator
Station Type Date Time Source
KMSP METAR 2019/04/25 09:53 UTC NOAA

KMSP 250953Z 31005KT 10SM OVC110 14/08 A2975 RMK AO2 SLP072 T01390078


Station Type Date Time Source
KMSP Decoded METAR 2019/04/25 09:53 UTC NOAA

MINNEAPOLIS-ST PAUL INTERNATIONAL , MN, United States (KMSP) 44-52N 93-13W 265M
Apr 25, 2019 - 05:53 AM EDT / 2019.04.25 0953 UTC
Wind: from the NW (310 degrees) at 6 MPH (5 KT):0
Visibility: 10 mile(s):0
Sky conditions: overcast
Temperature: 57.0 F (13.9 C)
Dew Point: 46.0 F (7.8 C)
Relative Humidity: 66%
Pressure (altimeter): 29.75 in. Hg (1007 hPa)
ob: KMSP 250953Z 31005KT 10SM OVC110 14/08 A2975 RMK AO2 SLP072 T01390078
cycle: 10

Station Type Date Time Source
KMSP TAF 2019/04/25 09:33 UTC NOAA

TAF
AMD KMSP 250831Z 2509/2612 00000KT P6SM BKN100
FM251300 VRB04KT P6SM SCT200
FM252100 32010KT P6SM FEW250

Example: see airport list